Haywood, Oklahoma
Current Conditions -  °F | °C
As of 10:53 PM on Sunday 19 Oct 2014 (Local Time) from KMLC Reporting Station
Few Clouds Few Clouds  
Wind Chill: 61°   Ceiling: Unl
Heat Index: 61°   Visibility: 10mi
Dew Point: 50°   Wind: 3mph
Humidity: 67%   Direction: 190°S
Pressure: 30.08"   Gusts: NA
Location:  34.9351°N, 95.8929°W
Report Text: KMLC 200353Z AUTO 19003KT 10SM FEW110 16/10 A3008 RMK AO2 SLP180 T01610100
Loading
Personal Weather Stations






























Interactive Weather Map
Tropical Storm Tracking
New forecast layout! Learn more

10-Day Weather Forecast

Advertisements
Track Severe Weather on mobile